sensor_id;sensor_type;location;lat;lon;timestamp;P1;durP1;ratioP1;P2;durP2;ratioP2
46781;SDS011;32541;46.298;11.506;2023-11-21T00:01:25;6.93;;;2.90;;
46781;SDS011;32541;46.298;11.506;2023-11-21T00:03:53;6.37;;;3.10;;
46781;SDS011;32541;46.298;11.506;2023-11-21T00:06:20;4.60;;;3.13;;
46781;SDS011;32541;46.298;11.506;2023-11-21T00:08:45;4.53;;;2.63;;
46781;SDS011;32541;46.298;11.506;2023-11-21T00:11:11;4.70;;;2.77;;
46781;SDS011;32541;46.298;11.506;2023-11-21T00:13:36;4.93;;;3.57;;
46781;SDS011;32541;46.298;11.506;2023-11-21T00:16:02;7.87;;;5.53;;
46781;SDS011;32541;46.298;11.506;2023-11-21T00:18:29;12.73;;;6.70;;
46781;SDS011;32541;46.298;11.506;2023-11-21T00:20:54;10.30;;;6.07;;
46781;SDS011;32541;46.298;11.506;2023-11-21T00:23:20;8.43;;;5.70;;
46781;SDS011;32541;46.298;11.506;2023-11-21T00:25:45;10.43;;;6.40;;
46781;SDS011;32541;46.298;11.506;2023-11-21T00:28:10;13.30;;;5.87;;
46781;SDS011;32541;46.298;11.506;2023-11-21T00:30:36;12.80;;;5.93;;
46781;SDS011;32541;46.298;11.506;2023-11-21T00:33:01;11.57;;;5.20;;
46781;SDS011;32541;46.298;11.506;2023-11-21T00:35:27;8.73;;;5.10;;
46781;SDS011;32541;46.298;11.506;2023-11-21T00:37:52;7.67;;;5.07;;
46781;SDS011;32541;46.298;11.506;2023-11-21T00:40:17;7.70;;;4.93;;
46781;SDS011;32541;46.298;11.506;2023-11-21T00:42:46;9.10;;;4.67;;
46781;SDS011;32541;46.298;11.506;2023-11-21T00:45:11;10.10;;;5.30;;
46781;SDS011;32541;46.298;11.506;2023-11-21T00:47:37;8.10;;;5.30;;
46781;SDS011;32541;46.298;11.506;2023-11-21T00:50:03;7.73;;;4.40;;
46781;SDS011;32541;46.298;11.506;2023-11-21T00:52:31;7.70;;;4.90;;
46781;SDS011;32541;46.298;11.506;2023-11-21T00:54:56;6.57;;;4.70;;
46781;SDS011;32541;46.298;11.506;2023-11-21T00:57:24;6.53;;;4.30;;
46781;SDS011;32541;46.298;11.506;2023-11-21T00:59:49;6.43;;;4.40;;
46781;SDS011;32541;46.298;11.506;2023-11-21T01:02:15;7.60;;;4.17;;
46781;SDS011;32541;46.298;11.506;2023-11-21T01:04:40;6.27;;;3.93;;
46781;SDS011;32541;46.298;11.506;2023-11-21T01:07:06;5.20;;;3.23;;
46781;SDS011;32541;46.298;11.506;2023-11-21T01:09:31;5.53;;;3.17;;
46781;SDS011;32541;46.298;11.506;2023-11-21T01:11:57;6.33;;;3.90;;
46781;SDS011;32541;46.298;11.506;2023-11-21T01:14:24;6.77;;;3.77;;
46781;SDS011;32541;46.298;11.506;2023-11-21T01:16:52;8.27;;;4.50;;
46781;SDS011;32541;46.298;11.506;2023-11-21T01:19:17;6.80;;;4.33;;
46781;SDS011;32541;46.298;11.506;2023-11-21T01:21:43;10.87;;;4.97;;
46781;SDS011;32541;46.298;11.506;2023-11-21T01:24:08;6.97;;;4.43;;
46781;SDS011;32541;46.298;11.506;2023-11-21T01:26:34;8.53;;;5.17;;
46781;SDS011;32541;46.298;11.506;2023-11-21T01:28:59;10.83;;;4.33;;
46781;SDS011;32541;46.298;11.506;2023-11-21T01:31:25;7.17;;;4.03;;
46781;SDS011;32541;46.298;11.506;2023-11-21T01:33:54;7.13;;;4.53;;
46781;SDS011;32541;46.298;11.506;2023-11-21T01:36:20;5.50;;;4.07;;
46781;SDS011;32541;46.298;11.506;2023-11-21T01:38:46;9.37;;;6.03;;
46781;SDS011;32541;46.298;11.506;2023-11-21T01:41:13;7.30;;;5.30;;
46781;SDS011;32541;46.298;11.506;2023-11-21T01:43:38;5.43;;;3.57;;
46781;SDS011;32541;46.298;11.506;2023-11-21T01:46:04;6.40;;;3.77;;
46781;SDS011;32541;46.298;11.506;2023-11-21T01:48:31;6.27;;;3.60;;
46781;SDS011;32541;46.298;11.506;2023-11-21T01:50:57;4.97;;;3.37;;
46781;SDS011;32541;46.298;11.506;2023-11-21T01:53:24;9.27;;;4.00;;
46781;SDS011;32541;46.298;11.506;2023-11-21T01:55:51;8.53;;;4.40;;
46781;SDS011;32541;46.298;11.506;2023-11-21T01:58:18;8.67;;;3.87;;
46781;SDS011;32541;46.298;11.506;2023-11-21T02:00:45;4.37;;;2.70;;
46781;SDS011;32541;46.298;11.506;2023-11-21T02:03:10;3.53;;;2.37;;
46781;SDS011;32541;46.298;11.506;2023-11-21T02:05:35;4.27;;;2.43;;
46781;SDS011;32541;46.298;11.506;2023-11-21T02:08:01;5.47;;;2.57;;
46781;SDS011;32541;46.298;11.506;2023-11-21T02:10:28;4.17;;;2.60;;
46781;SDS011;32541;46.298;11.506;2023-11-21T02:12:54;4.43;;;2.20;;
46781;SDS011;32541;46.298;11.506;2023-11-21T02:15:21;3.80;;;2.00;;
46781;SDS011;32541;46.298;11.506;2023-11-21T02:17:50;3.30;;;2.00;;
46781;SDS011;32541;46.298;11.506;2023-11-21T02:20:16;3.63;;;2.10;;
46781;SDS011;32541;46.298;11.506;2023-11-21T02:22:49;4.07;;;2.10;;
46781;SDS011;32541;46.298;11.506;2023-11-21T02:25:23;5.60;;;2.33;;
46781;SDS011;32541;46.298;11.506;2023-11-21T02:27:49;4.40;;;2.43;;
46781;SDS011;32541;46.298;11.506;2023-11-21T02:30:14;4.33;;;2.53;;
46781;SDS011;32541;46.298;11.506;2023-11-21T02:32:41;6.50;;;2.40;;
46781;SDS011;32541;46.298;11.506;2023-11-21T02:35:07;6.13;;;2.63;;
46781;SDS011;32541;46.298;11.506;2023-11-21T02:37:34;6.20;;;2.53;;
46781;SDS011;32541;46.298;11.506;2023-11-21T02:40:00;5.77;;;1.90;;
46781;SDS011;32541;46.298;11.506;2023-11-21T02:42:27;5.63;;;3.03;;
46781;SDS011;32541;46.298;11.506;2023-11-21T02:44:53;4.23;;;2.10;;
46781;SDS011;32541;46.298;11.506;2023-11-21T02:47:18;5.33;;;2.37;;
46781;SDS011;32541;46.298;11.506;2023-11-21T02:49:43;4.00;;;2.03;;
46781;SDS011;32541;46.298;11.506;2023-11-21T02:52:09;3.33;;;2.23;;
46781;SDS011;32541;46.298;11.506;2023-11-21T02:54:34;4.23;;;2.00;;
46781;SDS011;32541;46.298;11.506;2023-11-21T02:57:01;3.73;;;1.73;;
46781;SDS011;32541;46.298;11.506;2023-11-21T02:59:27;2.87;;;1.70;;
46781;SDS011;32541;46.298;11.506;2023-11-21T03:01:52;2.70;;;1.60;;
46781;SDS011;32541;46.298;11.506;2023-11-21T03:04:18;2.70;;;1.90;;
46781;SDS011;32541;46.298;11.506;2023-11-21T03:06:44;3.30;;;1.67;;
46781;SDS011;32541;46.298;11.506;2023-11-21T03:09:10;3.37;;;1.93;;
46781;SDS011;32541;46.298;11.506;2023-11-21T03:11:37;3.87;;;2.50;;
46781;SDS011;32541;46.298;11.506;2023-11-21T03:14:02;3.67;;;1.70;;
46781;SDS011;32541;46.298;11.506;2023-11-21T03:16:28;5.03;;;2.50;;
46781;SDS011;32541;46.298;11.506;2023-11-21T03:18:54;4.33;;;2.03;;
46781;SDS011;32541;46.298;11.506;2023-11-21T03:21:19;6.17;;;2.00;;
46781;SDS011;32541;46.298;11.506;2023-11-21T03:23:44;3.03;;;1.50;;
46781;SDS011;32541;46.298;11.506;2023-11-21T03:26:13;2.63;;;1.60;;
46781;SDS011;32541;46.298;11.506;2023-11-21T03:28:39;2.37;;;1.20;;
46781;SDS011;32541;46.298;11.506;2023-11-21T03:31:04;4.90;;;2.03;;
46781;SDS011;32541;46.298;11.506;2023-11-21T03:33:31;3.40;;;1.83;;
46781;SDS011;32541;46.298;11.506;2023-11-21T03:35:57;5.10;;;1.83;;
46781;SDS011;32541;46.298;11.506;2023-11-21T03:38:23;6.23;;;1.87;;
46781;SDS011;32541;46.298;11.506;2023-11-21T03:40:48;4.27;;;1.73;;
46781;SDS011;32541;46.298;11.506;2023-11-21T03:43:14;3.50;;;2.17;;
46781;SDS011;32541;46.298;11.506;2023-11-21T03:45:39;4.73;;;2.43;;
46781;SDS011;32541;46.298;11.506;2023-11-21T03:48:06;6.07;;;2.20;;
46781;SDS011;32541;46.298;11.506;2023-11-21T03:50:31;5.13;;;2.00;;
46781;SDS011;32541;46.298;11.506;2023-11-21T03:52:57;4.07;;;2.30;;
46781;SDS011;32541;46.298;11.506;2023-11-21T03:55:22;3.47;;;2.23;;
46781;SDS011;32541;46.298;11.506;2023-11-21T03:57:51;3.77;;;1.93;;
46781;SDS011;32541;46.298;11.506;2023-11-21T04:00:17;3.77;;;2.13;;
46781;SDS011;32541;46.298;11.506;2023-11-21T04:02:45;7.73;;;3.97;;
46781;SDS011;32541;46.298;11.506;2023-11-21T04:05:10;6.20;;;2.10;;
46781;SDS011;32541;46.298;11.506;2023-11-21T04:07:36;2.87;;;1.93;;
46781;SDS011;32541;46.298;11.506;2023-11-21T04:10:03;3.63;;;1.87;;
46781;SDS011;32541;46.298;11.506;2023-11-21T04:12:34;3.10;;;1.43;;
46781;SDS011;32541;46.298;11.506;2023-11-21T04:15:02;3.07;;;1.93;;
46781;SDS011;32541;46.298;11.506;2023-11-21T04:17:28;4.67;;;1.90;;
46781;SDS011;32541;46.298;11.506;2023-11-21T04:19:53;3.53;;;1.90;;
46781;SDS011;32541;46.298;11.506;2023-11-21T04:22:19;3.20;;;1.70;;
46781;SDS011;32541;46.298;11.506;2023-11-21T04:24:44;4.43;;;2.23;;
46781;SDS011;32541;46.298;11.506;2023-11-21T04:27:09;4.37;;;2.40;;
46781;SDS011;32541;46.298;11.506;2023-11-21T04:29:35;3.47;;;1.90;;
46781;SDS011;32541;46.298;11.506;2023-11-21T04:32:01;3.83;;;2.00;;
46781;SDS011;32541;46.298;11.506;2023-11-21T04:34:27;4.20;;;1.67;;
46781;SDS011;32541;46.298;11.506;2023-11-21T04:36:55;4.00;;;1.70;;
46781;SDS011;32541;46.298;11.506;2023-11-21T04:39:21;7.07;;;2.30;;
46781;SDS011;32541;46.298;11.506;2023-11-21T04:41:46;5.40;;;1.87;;
46781;SDS011;32541;46.298;11.506;2023-11-21T04:44:11;2.87;;;1.77;;
46781;SDS011;32541;46.298;11.506;2023-11-21T04:46:37;3.53;;;1.77;;
46781;SDS011;32541;46.298;11.506;2023-11-21T04:49:02;2.70;;;1.83;;
46781;SDS011;32541;46.298;11.506;2023-11-21T04:51:27;3.43;;;1.27;;
46781;SDS011;32541;46.298;11.506;2023-11-21T04:53:53;2.33;;;1.20;;
46781;SDS011;32541;46.298;11.506;2023-11-21T04:56:18;4.30;;;1.70;;
46781;SDS011;32541;46.298;11.506;2023-11-21T04:58:43;2.77;;;1.20;;
46781;SDS011;32541;46.298;11.506;2023-11-21T05:01:09;2.80;;;1.70;;
46781;SDS011;32541;46.298;11.506;2023-11-21T05:03:34;2.67;;;1.50;;
46781;SDS011;32541;46.298;11.506;2023-11-21T05:06:00;2.90;;;1.77;;
46781;SDS011;32541;46.298;11.506;2023-11-21T05:08:25;3.80;;;1.50;;
46781;SDS011;32541;46.298;11.506;2023-11-21T05:10:51;2.63;;;1.70;;
46781;SDS011;32541;46.298;11.506;2023-11-21T05:13:17;2.17;;;1.47;;
46781;SDS011;32541;46.298;11.506;2023-11-21T05:15:44;3.53;;;1.63;;
46781;SDS011;32541;46.298;11.506;2023-11-21T05:18:09;5.23;;;2.20;;
46781;SDS011;32541;46.298;11.506;2023-11-21T05:20:35;5.53;;;2.50;;
46781;SDS011;32541;46.298;11.506;2023-11-21T05:23:01;3.43;;;2.73;;
46781;SDS011;32541;46.298;11.506;2023-11-21T05:25:26;5.87;;;3.67;;
46781;SDS011;32541;46.298;11.506;2023-11-21T05:27:52;5.87;;;3.50;;
46781;SDS011;32541;46.298;11.506;2023-11-21T05:30:18;8.87;;;3.70;;
46781;SDS011;32541;46.298;11.506;2023-11-21T05:32:43;4.73;;;2.90;;
46781;SDS011;32541;46.298;11.506;2023-11-21T05:35:09;3.10;;;2.20;;
46781;SDS011;32541;46.298;11.506;2023-11-21T05:37:40;5.00;;;2.00;;
46781;SDS011;32541;46.298;11.506;2023-11-21T05:40:05;4.77;;;2.70;;
46781;SDS011;32541;46.298;11.506;2023-11-21T05:42:32;6.40;;;3.20;;
46781;SDS011;32541;46.298;11.506;2023-11-21T05:44:58;19.07;;;10.87;;
46781;SDS011;32541;46.298;11.506;2023-11-21T05:47:25;10.97;;;6.40;;
46781;SDS011;32541;46.298;11.506;2023-11-21T05:49:51;4.20;;;3.20;;
46781;SDS011;32541;46.298;11.506;2023-11-21T05:52:17;2.87;;;1.80;;
46781;SDS011;32541;46.298;11.506;2023-11-21T05:54:43;9.57;;;5.30;;
46781;SDS011;32541;46.298;11.506;2023-11-21T05:57:08;7.33;;;3.97;;
46781;SDS011;32541;46.298;11.506;2023-11-21T05:59:33;4.07;;;2.23;;
46781;SDS011;32541;46.298;11.506;2023-11-21T06:01:59;5.30;;;2.60;;
46781;SDS011;32541;46.298;11.506;2023-11-21T06:04:24;6.53;;;2.50;;
46781;SDS011;32541;46.298;11.506;2023-11-21T06:06:51;6.43;;;3.40;;
46781;SDS011;32541;46.298;11.506;2023-11-21T06:09:17;12.27;;;5.77;;
46781;SDS011;32541;46.298;11.506;2023-11-21T06:11:43;6.60;;;3.73;;
46781;SDS011;32541;46.298;11.506;2023-11-21T06:14:08;13.33;;;7.17;;
46781;SDS011;32541;46.298;11.506;2023-11-21T06:16:34;15.90;;;7.37;;
46781;SDS011;32541;46.298;11.506;2023-11-21T06:19:00;4.50;;;2.67;;
46781;SDS011;32541;46.298;11.506;2023-11-21T06:21:26;4.50;;;3.00;;
46781;SDS011;32541;46.298;11.506;2023-11-21T06:23:51;8.27;;;4.17;;
46781;SDS011;32541;46.298;11.506;2023-11-21T06:26:18;7.93;;;5.37;;
46781;SDS011;32541;46.298;11.506;2023-11-21T06:28:43;10.40;;;5.30;;
46781;SDS011;32541;46.298;11.506;2023-11-21T06:31:09;7.77;;;4.80;;
46781;SDS011;32541;46.298;11.506;2023-11-21T06:33:35;7.60;;;4.60;;
46781;SDS011;32541;46.298;11.506;2023-11-21T06:36:01;9.97;;;5.97;;
46781;SDS011;32541;46.298;11.506;2023-11-21T06:38:31;107.60;;;54.13;;
46781;SDS011;32541;46.298;11.506;2023-11-21T06:40:57;39.63;;;21.33;;
46781;SDS011;32541;46.298;11.506;2023-11-21T06:43:23;14.40;;;8.37;;
46781;SDS011;32541;46.298;11.506;2023-11-21T06:45:49;7.43;;;4.67;;
46781;SDS011;32541;46.298;11.506;2023-11-21T06:48:14;11.10;;;5.80;;
46781;SDS011;32541;46.298;11.506;2023-11-21T06:50:40;8.73;;;4.60;;
46781;SDS011;32541;46.298;11.506;2023-11-21T06:53:06;12.27;;;5.77;;
46781;SDS011;32541;46.298;11.506;2023-11-21T06:55:33;12.40;;;8.70;;
46781;SDS011;32541;46.298;11.506;2023-11-21T06:57:58;8.47;;;5.83;;
46781;SDS011;32541;46.298;11.506;2023-11-21T07:00:25;7.57;;;5.10;;
46781;SDS011;32541;46.298;11.506;2023-11-21T07:02:52;11.30;;;5.90;;
46781;SDS011;32541;46.298;11.506;2023-11-21T07:05:17;17.87;;;8.13;;
46781;SDS011;32541;46.298;11.506;2023-11-21T07:07:46;21.97;;;10.90;;
46781;SDS011;32541;46.298;11.506;2023-11-21T07:10:11;45.77;;;18.83;;
46781;SDS011;32541;46.298;11.506;2023-11-21T07:12:37;31.97;;;15.57;;
46781;SDS011;32541;46.298;11.506;2023-11-21T07:15:03;25.83;;;11.77;;
46781;SDS011;32541;46.298;11.506;2023-11-21T07:17:30;10.67;;;5.37;;
46781;SDS011;32541;46.298;11.506;2023-11-21T07:19:56;8.43;;;3.90;;
46781;SDS011;32541;46.298;11.506;2023-11-21T07:22:21;9.43;;;5.60;;
46781;SDS011;32541;46.298;11.506;2023-11-21T07:24:50;9.97;;;5.43;;
46781;SDS011;32541;46.298;11.506;2023-11-21T07:27:16;12.53;;;7.40;;
46781;SDS011;32541;46.298;11.506;2023-11-21T07:29:41;12.00;;;7.90;;
46781;SDS011;32541;46.298;11.506;2023-11-21T07:32:07;12.80;;;7.23;;
46781;SDS011;32541;46.298;11.506;2023-11-21T07:34:34;15.83;;;10.10;;
46781;SDS011;32541;46.298;11.506;2023-11-21T07:36:59;26.23;;;13.97;;
46781;SDS011;32541;46.298;11.506;2023-11-21T07:39:25;16.80;;;7.13;;
46781;SDS011;32541;46.298;11.506;2023-11-21T07:41:50;16.73;;;8.43;;
46781;SDS011;32541;46.298;11.506;2023-11-21T07:44:16;26.63;;;15.77;;
46781;SDS011;32541;46.298;11.506;2023-11-21T07:46:42;20.60;;;14.20;;
46781;SDS011;32541;46.298;11.506;2023-11-21T07:49:08;28.63;;;13.60;;
46781;SDS011;32541;46.298;11.506;2023-11-21T07:51:34;7.00;;;2.88;;
46781;SDS011;32541;46.298;11.506;2023-11-21T07:53:59;17.75;;;10.68;;
46781;SDS011;32541;46.298;11.506;2023-11-21T07:56:25;30.70;;;15.85;;
46781;SDS011;32541;46.298;11.506;2023-11-21T07:58:51;32.22;;;18.67;;
46781;SDS011;32541;46.298;11.506;2023-11-21T08:01:16;28.75;;;19.10;;
46781;SDS011;32541;46.298;11.506;2023-11-21T08:03:41;32.08;;;19.73;;
46781;SDS011;32541;46.298;11.506;2023-11-21T08:06:07;32.40;;;18.75;;
46781;SDS011;32541;46.298;11.506;2023-11-21T08:08:32;24.15;;;15.43;;
46781;SDS011;32541;46.298;11.506;2023-11-21T08:10:58;19.55;;;13.15;;
46781;SDS011;32541;46.298;11.506;2023-11-21T08:13:25;20.42;;;12.23;;
46781;SDS011;32541;46.298;11.506;2023-11-21T08:15:54;18.88;;;12.02;;
46781;SDS011;32541;46.298;11.506;2023-11-21T08:18:21;19.13;;;12.30;;
46781;SDS011;32541;46.298;11.506;2023-11-21T08:20:47;16.27;;;10.52;;
46781;SDS011;32541;46.298;11.506;2023-11-21T08:23:13;9.07;;;5.13;;
46781;SDS011;32541;46.298;11.506;2023-11-21T08:25:44;15.18;;;7.00;;
46781;SDS011;32541;46.298;11.506;2023-11-21T08:28:10;10.40;;;5.88;;
46781;SDS011;32541;46.298;11.506;2023-11-21T08:30:37;17.52;;;11.73;;
46781;SDS011;32541;46.298;11.506;2023-11-21T08:33:02;15.93;;;10.07;;
46781;SDS011;32541;46.298;11.506;2023-11-21T08:35:28;18.67;;;12.48;;
46781;SDS011;32541;46.298;11.506;2023-11-21T08:37:54;19.75;;;10.68;;
46781;SDS011;32541;46.298;11.506;2023-11-21T08:40:20;19.13;;;9.45;;
46781;SDS011;32541;46.298;11.506;2023-11-21T08:42:46;13.90;;;8.95;;
46781;SDS011;32541;46.298;11.506;2023-11-21T08:45:13;19.40;;;9.27;;
46781;SDS011;32541;46.298;11.506;2023-11-21T08:47:39;15.43;;;9.40;;
46781;SDS011;32541;46.298;11.506;2023-11-21T08:50:07;14.82;;;8.60;;
46781;SDS011;32541;46.298;11.506;2023-11-21T08:52:36;18.40;;;8.88;;
46781;SDS011;32541;46.298;11.506;2023-11-21T08:55:02;16.73;;;8.17;;
46781;SDS011;32541;46.298;11.506;2023-11-21T08:57:33;18.40;;;9.20;;
46781;SDS011;32541;46.298;11.506;2023-11-21T09:00:02;16.20;;;8.52;;
46781;SDS011;32541;46.298;11.506;2023-11-21T09:02:32;14.90;;;8.90;;
46781;SDS011;32541;46.298;11.506;2023-11-21T09:04:59;15.82;;;8.88;;
46781;SDS011;32541;46.298;11.506;2023-11-21T09:07:24;20.92;;;9.95;;
46781;SDS011;32541;46.298;11.506;2023-11-21T09:09:50;16.58;;;8.25;;
46781;SDS011;32541;46.298;11.506;2023-11-21T09:12:16;10.05;;;5.82;;
46781;SDS011;32541;46.298;11.506;2023-11-21T09:14:42;7.07;;;4.15;;
46781;SDS011;32541;46.298;11.506;2023-11-21T09:17:09;4.97;;;2.70;;
46781;SDS011;32541;46.298;11.506;2023-11-21T09:19:37;4.15;;;2.67;;
46781;SDS011;32541;46.298;11.506;2023-11-21T09:22:02;5.07;;;2.45;;
46781;SDS011;32541;46.298;11.506;2023-11-21T09:24:28;9.73;;;5.35;;
46781;SDS011;32541;46.298;11.506;2023-11-21T09:26:53;9.35;;;5.57;;
46781;SDS011;32541;46.298;11.506;2023-11-21T09:29:19;14.73;;;8.23;;
46781;SDS011;32541;46.298;11.506;2023-11-21T09:31:44;16.92;;;8.98;;
46781;SDS011;32541;46.298;11.506;2023-11-21T09:34:10;13.00;;;8.25;;
46781;SDS011;32541;46.298;11.506;2023-11-21T09:36:36;15.30;;;9.18;;
46781;SDS011;32541;46.298;11.506;2023-11-21T09:39:04;15.38;;;9.18;;
46781;SDS011;32541;46.298;11.506;2023-11-21T09:41:56;18.48;;;8.95;;
46781;SDS011;32541;46.298;11.506;2023-11-21T09:44:32;32.20;;;13.27;;
46781;SDS011;32541;46.298;11.506;2023-11-21T09:47:20;26.63;;;14.03;;
46781;SDS011;32541;46.298;11.506;2023-11-21T09:49:47;28.67;;;15.00;;
46781;SDS011;32541;46.298;11.506;2023-11-21T09:52:26;23.75;;;12.88;;
46781;SDS011;32541;46.298;11.506;2023-11-21T09:54:53;25.65;;;11.25;;
46781;SDS011;32541;46.298;11.506;2023-11-21T09:57:23;19.35;;;10.00;;
46781;SDS011;32541;46.298;11.506;2023-11-21T09:59:52;19.60;;;10.60;;
46781;SDS011;32541;46.298;11.506;2023-11-21T10:02:27;17.80;;;10.02;;
46781;SDS011;32541;46.298;11.506;2023-11-21T10:04:59;18.00;;;9.45;;
46781;SDS011;32541;46.298;11.506;2023-11-21T10:07:25;21.23;;;10.20;;
46781;SDS011;32541;46.298;11.506;2023-11-21T10:09:51;19.13;;;10.45;;
46781;SDS011;32541;46.298;11.506;2023-11-21T10:12:18;20.45;;;11.48;;
46781;SDS011;32541;46.298;11.506;2023-11-21T10:14:47;16.98;;;9.52;;
46781;SDS011;32541;46.298;11.506;2023-11-21T10:17:14;15.40;;;8.88;;
46781;SDS011;32541;46.298;11.506;2023-11-21T10:19:41;30.92;;;16.15;;
46781;SDS011;32541;46.298;11.506;2023-11-21T10:22:08;35.17;;;18.23;;
46781;SDS011;32541;46.298;11.506;2023-11-21T10:24:34;28.70;;;14.77;;
46781;SDS011;32541;46.298;11.506;2023-11-21T10:26:59;29.08;;;16.50;;
46781;SDS011;32541;46.298;11.506;2023-11-21T10:29:28;31.83;;;13.77;;
46781;SDS011;32541;46.298;11.506;2023-11-21T10:31:55;26.07;;;14.37;;
46781;SDS011;32541;46.298;11.506;2023-11-21T10:34:22;27.80;;;16.00;;
46781;SDS011;32541;46.298;11.506;2023-11-21T10:36:48;32.28;;;15.10;;
46781;SDS011;32541;46.298;11.506;2023-11-21T10:39:17;31.48;;;15.77;;
46781;SDS011;32541;46.298;11.506;2023-11-21T10:41:44;35.88;;;17.05;;
46781;SDS011;32541;46.298;11.506;2023-11-21T10:44:11;23.92;;;13.48;;
46781;SDS011;32541;46.298;11.506;2023-11-21T10:46:39;29.20;;;14.82;;
46781;SDS011;32541;46.298;11.506;2023-11-21T10:49:05;25.63;;;14.50;;
46781;SDS011;32541;46.298;11.506;2023-11-21T10:51:31;26.45;;;14.27;;
46781;SDS011;32541;46.298;11.506;2023-11-21T10:53:57;25.98;;;14.55;;
46781;SDS011;32541;46.298;11.506;2023-11-21T10:56:25;26.50;;;13.48;;
46781;SDS011;32541;46.298;11.506;2023-11-21T10:58:52;19.55;;;10.75;;
46781;SDS011;32541;46.298;11.506;2023-11-21T11:01:18;40.88;;;23.88;;
46781;SDS011;32541;46.298;11.506;2023-11-21T11:03:46;38.75;;;21.90;;
46781;SDS011;32541;46.298;11.506;2023-11-21T11:06:12;39.67;;;21.02;;
46781;SDS011;32541;46.298;11.506;2023-11-21T11:08:38;30.08;;;17.77;;
46781;SDS011;32541;46.298;11.506;2023-11-21T11:11:05;15.10;;;8.90;;
46781;SDS011;32541;46.298;11.506;2023-11-21T11:13:31;22.27;;;14.07;;
46781;SDS011;32541;46.298;11.506;2023-11-21T11:16:00;27.70;;;12.97;;
46781;SDS011;32541;46.298;11.506;2023-11-21T11:18:27;17.30;;;11.40;;
46781;SDS011;32541;46.298;11.506;2023-11-21T11:20:54;18.50;;;10.27;;
46781;SDS011;32541;46.298;11.506;2023-11-21T11:32:27;15.15;;;7.18;;
46781;SDS011;32541;46.298;11.506;2023-11-21T11:35:24;15.43;;;9.55;;
46781;SDS011;32541;46.298;11.506;2023-11-21T11:37:28;11.80;;;7.30;;
46781;SDS011;32541;46.298;11.506;2023-11-21T11:39:54;10.70;;;5.85;;
46781;SDS011;32541;46.298;11.506;2023-11-21T11:42:20;12.32;;;6.53;;
46781;SDS011;32541;46.298;11.506;2023-11-21T11:44:48;31.38;;;11.88;;
46781;SDS011;32541;46.298;11.506;2023-11-21T11:55:10;15.02;;;6.53;;
46781;SDS011;32541;46.298;11.506;2023-11-21T11:57:37;30.45;;;17.83;;
46781;SDS011;32541;46.298;11.506;2023-11-21T12:02:51;12.20;;;5.68;;
46781;SDS011;32541;46.298;11.506;2023-11-21T12:05:18;11.10;;;6.43;;
46781;SDS011;32541;46.298;11.506;2023-11-21T12:10:20;9.38;;;4.50;;
46781;SDS011;32541;46.298;11.506;2023-11-21T12:12:50;6.40;;;4.00;;
46781;SDS011;32541;46.298;11.506;2023-11-21T12:15:17;10.48;;;4.70;;
46781;SDS011;32541;46.298;11.506;2023-11-21T12:17:44;10.32;;;5.97;;
46781;SDS011;32541;46.298;11.506;2023-11-21T12:20:11;12.68;;;8.40;;
46781;SDS011;32541;46.298;11.506;2023-11-21T12:22:42;30.92;;;18.25;;
46781;SDS011;32541;46.298;11.506;2023-11-21T12:25:23;25.90;;;14.32;;
46781;SDS011;32541;46.298;11.506;2023-11-21T12:27:50;16.92;;;10.30;;
46781;SDS011;32541;46.298;11.506;2023-11-21T12:30:17;14.65;;;8.85;;
46781;SDS011;32541;46.298;11.506;2023-11-21T12:32:44;16.70;;;9.63;;
46781;SDS011;32541;46.298;11.506;2023-11-21T12:35:12;18.85;;;9.98;;
46781;SDS011;32541;46.298;11.506;2023-11-21T12:37:38;16.38;;;8.52;;
46781;SDS011;32541;46.298;11.506;2023-11-21T12:40:06;10.57;;;7.13;;
46781;SDS011;32541;46.298;11.506;2023-11-21T12:42:33;13.00;;;6.78;;
46781;SDS011;32541;46.298;11.506;2023-11-21T12:45:09;10.52;;;6.85;;
46781;SDS011;32541;46.298;11.506;2023-11-21T12:47:43;14.98;;;8.40;;
46781;SDS011;32541;46.298;11.506;2023-11-21T12:50:09;13.30;;;8.38;;
46781;SDS011;32541;46.298;11.506;2023-11-21T12:52:44;11.30;;;6.95;;
46781;SDS011;32541;46.298;11.506;2023-11-21T12:55:17;14.38;;;8.90;;
46781;SDS011;32541;46.298;11.506;2023-11-21T12:57:44;12.30;;;7.32;;
46781;SDS011;32541;46.298;11.506;2023-11-21T13:00:11;16.17;;;8.80;;
46781;SDS011;32541;46.298;11.506;2023-11-21T13:02:49;11.57;;;6.50;;
46781;SDS011;32541;46.298;11.506;2023-11-21T13:05:22;16.85;;;11.10;;
46781;SDS011;32541;46.298;11.506;2023-11-21T13:07:51;12.93;;;6.82;;
46781;SDS011;32541;46.298;11.506;2023-11-21T13:10:19;10.13;;;5.85;;
46781;SDS011;32541;46.298;11.506;2023-11-21T13:12:51;17.95;;;10.88;;
46781;SDS011;32541;46.298;11.506;2023-11-21T13:15:17;15.23;;;9.55;;
46781;SDS011;32541;46.298;11.506;2023-11-21T13:17:43;16.85;;;8.13;;
46781;SDS011;32541;46.298;11.506;2023-11-21T13:20:12;13.32;;;8.80;;
46781;SDS011;32541;46.298;11.506;2023-11-21T13:25:27;7.65;;;4.22;;
46781;SDS011;32541;46.298;11.506;2023-11-21T13:27:54;6.88;;;4.00;;
46781;SDS011;32541;46.298;11.506;2023-11-21T13:30:19;9.73;;;4.10;;
46781;SDS011;32541;46.298;11.506;2023-11-21T13:32:51;8.48;;;4.35;;
46781;SDS011;32541;46.298;11.506;2023-11-21T13:35:17;10.60;;;4.60;;
46781;SDS011;32541;46.298;11.506;2023-11-21T13:37:51;10.90;;;6.10;;
46781;SDS011;32541;46.298;11.506;2023-11-21T13:40:20;12.00;;;5.93;;
46781;SDS011;32541;46.298;11.506;2023-11-21T13:42:55;9.32;;;5.45;;
46781;SDS011;32541;46.298;11.506;2023-11-21T13:45:23;10.93;;;5.53;;
46781;SDS011;32541;46.298;11.506;2023-11-21T13:47:50;12.82;;;5.43;;
46781;SDS011;32541;46.298;11.506;2023-11-21T13:50:27;9.95;;;5.35;;
46781;SDS011;32541;46.298;11.506;2023-11-21T13:52:59;10.43;;;5.90;;
46781;SDS011;32541;46.298;11.506;2023-11-21T13:55:34;12.05;;;5.00;;
46781;SDS011;32541;46.298;11.506;2023-11-21T13:58:02;7.40;;;4.97;;
46781;SDS011;32541;46.298;11.506;2023-11-21T14:00:34;9.55;;;6.13;;
46781;SDS011;32541;46.298;11.506;2023-11-21T14:03:13;11.45;;;6.03;;
46781;SDS011;32541;46.298;11.506;2023-11-21T14:05:44;10.05;;;6.20;;
46781;SDS011;32541;46.298;11.506;2023-11-21T14:08:13;8.10;;;5.22;;
46781;SDS011;32541;46.298;11.506;2023-11-21T14:10:41;14.05;;;8.10;;
46781;SDS011;32541;46.298;11.506;2023-11-21T14:13:11;12.57;;;7.07;;
46781;SDS011;32541;46.298;11.506;2023-11-21T14:15:37;7.28;;;4.43;;
46781;SDS011;32541;46.298;11.506;2023-11-21T14:18:07;5.97;;;3.58;;
46781;SDS011;32541;46.298;11.506;2023-11-21T14:20:36;13.75;;;8.63;;
46781;SDS011;32541;46.298;11.506;2023-11-21T14:23:03;27.08;;;9.40;;
46781;SDS011;32541;46.298;11.506;2023-11-21T14:25:31;16.58;;;8.50;;
46781;SDS011;32541;46.298;11.506;2023-11-21T14:27:57;15.30;;;8.20;;
46781;SDS011;32541;46.298;11.506;2023-11-21T14:30:22;10.75;;;6.28;;
46781;SDS011;32541;46.298;11.506;2023-11-21T14:32:48;11.45;;;5.97;;
46781;SDS011;32541;46.298;11.506;2023-11-21T14:35:15;11.07;;;7.13;;
46781;SDS011;32541;46.298;11.506;2023-11-21T14:37:41;14.98;;;7.65;;
46781;SDS011;32541;46.298;11.506;2023-11-21T14:40:07;7.95;;;5.80;;
46781;SDS011;32541;46.298;11.506;2023-11-21T14:42:33;8.70;;;4.18;;
46781;SDS011;32541;46.298;11.506;2023-11-21T14:45:02;5.50;;;3.47;;
46781;SDS011;32541;46.298;11.506;2023-11-21T14:47:31;9.40;;;3.97;;
46781;SDS011;32541;46.298;11.506;2023-11-21T14:49:57;3.75;;;2.17;;